Aeroporto :
LOGIN :

Iscrizione | Disclaimer

   EN    FR    IT 

 










Sommario :    VFR   VFR Marginale   IFR   IFR Intensivo   IFR Molto Intensivo
Visibilità : 
Base nubi : 
>= 8 km
>= 3000ft
5 / 8 km
1000 / 3000 ft
1500m / 5 km
500 / 1000 ft
800 / 1500m
200 / 500 ft
< 800m
< 200 ft
Simboli :   Temporali  Nebbia  Neve Forte  Precipitazioni Forti  Vento > 20 kt
SIGMETs :   Varie  Temporali  Ghiacco  Turbolenza  Onda orograficha  Ceneri Vulcaniche






- Altitudine del aeroporto : 3368 ft


LSGC - Les Eplatures

ULTIMO METAR :
  • 172050Z AUTO 24012KT 200V260 9999 BKN013 BKN015 03/01 Q1025

METARs OBSOLETI :
  • 172020Z AUTO 24010KT 200V260 9999 BKN009 03/02 Q1024
  • 171950Z AUTO 22008KT 200V260 9999 BKN008 //////TCU 02/01 Q1024 RERASN
  • 171920Z AUTO 23009KT 6000 -RASN BKN007 BKN009 02/01 Q1024
  • 171850Z AUTO 23009KT 190V260 9999 -RASN SCT009 SCT011 BKN023 02/01 Q1024
  • 171820Z AUTO 23008KT 200V260 9999 -RASN BKN007 02/01 Q1023 RESN
  • 171750Z AUTO 23007KT 190V270 9999 BKN007 BKN009 02/01 Q1023 RESN

TAF TAF LSGC
Valido dal 17 a 15 ore il 18 a 00 ore UTC


171425Z 1715/1724 24012KT 9999 FEW008 BKN025
PROB40
TEMPO 1716/1718 25020G30KT 4500 SHRA



MetMap, La meteo Aeronautica in un colpo d'occhio ! - Copyright ORBIFLY Dicembre 2007 - Disclaimer

ORBIFLY MET'MAP TEAM :

Programmazione e sviluppo : Alexandra Zaïnal
Concezione : Baudouin d'Aumeries
Aiuto per la programmazione : Marc-Olivier Méhu
Supporto tecnico e logistico : Manuel Goepfert
Aiuto per la traduzione : Arnaldo La Scala

Contatto : metmap@orbifly.com




FONTI E CREDITI :

   NOAA